Hauptseite
METAR-TAF:

METAR-TAF

Flughäfen :

Bohrplattform

Hoorn-a, Niederlande

Breite: 52-55-05N, Länge: 4-09-01E, Höhe: 41 m

Beobachtung

Neuester Wetterbericht von vor 12 Minuten, um 06:55 UTC
Wind 10 kt aus Süd
Temperatur 18°C
Luftfeuchtigkeit 88%
Luftdruck 1017 hPa
Sichtweite 10 km oder mehr

METAR: EHQE 180655Z AUTO 19010KT 9999 NSC 18/16 Q1017 W///H///

Zeit: 09:07 (07:07 UTC)


TAF: fehlend

Wetterbeobachtungen und Prognosen von mehr als 4000 Flughäfen (METAR und TAF Bericht).

Die verfügbaren Stationen werden durch gelbe und rote Markierungen auf der Karte dargestellt.

Führen Sie die Maus auf sie, um den Namen der Station zu sehen.

Darauf klicken, um die Beobachtung von Wetterbeobachtungen und Prognosen zu sehen.

Um die Karte zu ändern : klicken Sie auf den grünen Tasten mit einem schwarzen Kreuz Zum Vergrößern, auf den grünen Button mit einem Gedankenstrich zu verkleinern, oder auf die grünen Pfeile für benachbarte Karten.


METAR-TAF: